Time;durP1;ratioP1;P1;durP2;ratioP2;P2;SDS_P1;SDS_P2;PMS_P1;PMS_P2;Temp;Humidity;BMP_temperature;BMP_pressure;BME280_temperature;BME280_humidity;BME280_pressure;Samples;Min_cycle;Max_cycle;Signal;HPM_P1;HPM_P2
2021/05/22 00:00:30;;;;;;;20.20;6.15;;;20.40;39.00;;;;;;1038781;28;20445;-78
2021/05/22 00:01:01;;;;;;;22.73;6.10;;;20.40;39.00;;;;;;1036302;28;20122;-77
2021/05/22 00:01:33;;;;;;;17.67;5.60;;;20.40;38.90;;;;;;1036347;28;20493;-77
2021/05/22 00:02:04;;;;;;;21.55;6.35;;;20.40;39.10;;;;;;1035822;28;20026;-77
2021/05/22 00:02:36;;;;;;;21.95;6.25;;;20.40;39.30;;;;;;1035699;28;20030;-79
2021/05/22 00:03:07;;;;;;;22.10;5.90;;;20.30;39.50;;;;;;1034032;28;20033;-77
2021/05/22 00:03:38;;;;;;;16.88;5.80;;;20.40;39.60;;;;;;1035387;28;20030;-78
2021/05/22 00:04:10;;;;;;;21.85;6.18;;;20.40;39.80;;;;;;1032830;28;20381;-77
2021/05/22 00:04:41;;;;;;;17.17;6.05;;;20.30;39.90;;;;;;1035787;28;20037;-78
2021/05/22 00:05:13;;;;;;;20.80;6.18;;;20.30;40.10;;;;;;1032259;28;20029;-78
2021/05/22 00:05:44;;;;;;;21.88;6.18;;;20.40;39.30;;;;;;1031775;28;20026;-77
2021/05/22 00:06:16;;;;;;;23.27;6.65;;;20.30;39.40;;;;;;1034866;28;20029;-78
2021/05/22 00:06:47;;;;;;;18.75;5.85;;;20.40;39.60;;;;;;1032659;28;20034;-79
2021/05/22 00:07:19;;;;;;;21.23;6.53;;;20.40;39.70;;;;;;1036530;28;20045;-79
2021/05/22 00:07:50;;;;;;;25.38;6.75;;;20.30;39.70;;;;;;1035671;28;20440;-78
2021/05/22 00:08:21;;;;;;;22.33;6.25;;;20.30;39.70;;;;;;1034333;28;20490;-78
2021/05/22 00:08:53;;;;;;;18.60;6.03;;;20.30;39.90;;;;;;1035789;28;20116;-78
2021/05/22 00:09:24;;;;;;;21.27;6.03;;;20.20;39.90;;;;;;1035736;28;20030;-78
2021/05/22 00:09:56;;;;;;;21.98;6.82;;;20.20;40.00;;;;;;1035478;28;20080;-78
2021/05/22 00:10:27;;;;;;;18.95;6.22;;;20.20;40.00;;;;;;1034430;28;20042;-78
2021/05/22 00:10:59;;;;;;;19.88;6.43;;;20.20;40.00;;;;;;1034321;28;20095;-78
2021/05/22 00:11:30;;;;;;;20.70;6.70;;;20.20;40.20;;;;;;1034154;28;20039;-78
2021/05/22 00:12:02;;;;;;;20.30;6.38;;;20.20;40.30;;;;;;1036811;28;20469;-80
2021/05/22 00:12:33;;;;;;;18.83;5.88;;;20.20;40.00;;;;;;1035575;28;20417;-78
2021/05/22 00:13:04;;;;;;;20.17;6.25;;;20.20;40.00;;;;;;1032102;28;20074;-78
2021/05/22 00:13:36;;;;;;;20.55;6.25;;;20.20;40.10;;;;;;1030522;28;20030;-78
2021/05/22 00:14:07;;;;;;;20.52;6.32;;;20.20;39.80;;;;;;1028931;28;20042;-78
2021/05/22 00:14:39;;;;;;;21.20;6.32;;;20.20;39.50;;;;;;1032677;28;20034;-78
2021/05/22 00:15:13;;;;;;;19.13;6.28;;;20.20;39.50;;;;;;1032629;28;20473;-77
2021/05/22 00:15:45;;;;;;;22.45;6.28;;;20.20;39.50;;;;;;1036076;28;20047;-78
2021/05/22 00:16:16;;;;;;;23.23;6.82;;;20.20;39.60;;;;;;1034396;28;21140;-78
2021/05/22 00:16:48;;;;;;;17.77;6.30;;;20.10;39.40;;;;;;1029643;28;20081;-79
2021/05/22 00:17:19;;;;;;;20.38;6.03;;;20.10;39.30;;;;;;1030482;28;20039;-78
2021/05/22 00:17:51;;;;;;;19.02;5.60;;;20.10;39.50;;;;;;1025798;28;20115;-78
2021/05/22 00:18:22;;;;;;;20.05;6.35;;;20.10;39.50;;;;;;1025815;28;20547;-78
2021/05/22 00:18:53;;;;;;;20.17;6.25;;;20.10;39.60;;;;;;1028684;28;20463;-79
2021/05/22 00:19:25;;;;;;;20.90;6.65;;;20.00;39.80;;;;;;1029248;28;20433;-77
2021/05/22 00:19:56;;;;;;;24.50;6.63;;;20.10;39.90;;;;;;1030222;28;20031;-77
2021/05/22 00:20:28;;;;;;;24.27;6.57;;;20.10;40.00;;;;;;1032129;28;20113;-78
2021/05/22 00:20:59;;;;;;;20.05;6.97;;;20.10;40.00;;;;;;1031426;28;20113;-77
2021/05/22 00:21:31;;;;;;;20.70;6.32;;;20.10;39.90;;;;;;1034365;28;20113;-77
2021/05/22 00:22:03;;;;;;;22.08;6.43;;;20.10;40.10;;;;;;1033671;28;20436;-78
2021/05/22 00:22:35;;;;;;;21.23;6.50;;;20.00;40.10;;;;;;1036035;28;20026;-79
2021/05/22 00:23:06;;;;;;;23.77;6.60;;;20.00;40.20;;;;;;1034574;28;20124;-78
2021/05/22 00:23:38;;;;;;;22.42;6.22;;;20.00;40.00;;;;;;1035725;28;20092;-77
2021/05/22 00:24:10;;;;;;;20.30;6.45;;;20.00;40.00;;;;;;1036002;28;20081;-79
2021/05/22 00:24:41;;;;;;;22.05;6.80;;;20.00;40.20;;;;;;1033429;28;20358;-78
2021/05/22 00:25:14;;;;;;;21.65;6.55;;;20.00;40.20;;;;;;1034235;28;20458;-78
2021/05/22 00:25:45;;;;;;;25.52;6.47;;;20.00;40.30;;;;;;1036474;28;20068;-78
2021/05/22 00:26:17;;;;;;;19.42;6.30;;;20.10;40.10;;;;;;1031346;28;20046;-77
2021/05/22 00:26:48;;;;;;;22.05;6.43;;;20.10;40.00;;;;;;1026235;28;20107;-78
2021/05/22 00:27:19;;;;;;;19.42;6.03;;;20.10;39.90;;;;;;1029793;28;20383;-77
2021/05/22 00:27:51;;;;;;;20.10;6.07;;;20.10;40.00;;;;;;1030061;28;20389;-77
2021/05/22 00:28:22;;;;;;;17.88;5.63;;;20.10;39.70;;;;;;1034794;28;20045;-78
2021/05/22 00:28:54;;;;;;;19.67;5.63;;;20.10;39.10;;;;;;1035576;28;20077;-79
2021/05/22 00:29:25;;;;;;;17.40;5.60;;;20.10;39.20;;;;;;1035893;28;20034;-78
2021/05/22 00:29:57;;;;;;;17.42;5.45;;;20.10;39.20;;;;;;1034552;28;20038;-79
2021/05/22 00:30:28;;;;;;;18.85;5.78;;;20.10;39.40;;;;;;1036829;28;20041;-77
2021/05/22 00:30:59;;;;;;;19.55;5.28;;;20.10;39.20;;;;;;1037225;28;20045;-78
2021/05/22 00:31:33;;;;;;;15.68;5.43;;;20.20;38.10;;;;;;1036410;28;20041;-77
2021/05/22 00:32:05;;;;;;;19.15;5.75;;;20.20;38.20;;;;;;1036543;28;20037;-78
2021/05/22 00:32:37;;;;;;;21.42;5.93;;;20.20;38.40;;;;;;1035773;28;20065;-77
2021/05/22 00:33:09;;;;;;;16.13;5.63;;;20.20;38.50;;;;;;1038641;28;20503;-78
2021/05/22 00:33:40;;;;;;;18.17;6.05;;;20.20;38.60;;;;;;1040692;28;20037;-78
2021/05/22 00:34:11;;;;;;;18.25;5.60;;;20.20;38.90;;;;;;1040270;28;20030;-78
2021/05/22 00:34:43;;;;;;;16.77;5.90;;;20.20;38.50;;;;;;1038713;28;20088;-77
2021/05/22 00:35:14;;;;;;;17.70;5.90;;;20.20;38.40;;;;;;1032067;28;20164;-77
2021/05/22 00:35:46;;;;;;;23.60;5.70;;;20.20;38.00;;;;;;1035383;28;20108;-77
2021/05/22 00:36:17;;;;;;;16.15;5.43;;;20.20;38.30;;;;;;1035400;28;20500;-78
2021/05/22 00:36:48;;;;;;;18.45;5.75;;;20.10;38.40;;;;;;1031367;28;20065;-78
2021/05/22 00:37:20;;;;;;;20.40;6.07;;;20.10;38.60;;;;;;1030335;28;20026;-78
2021/05/22 00:37:51;;;;;;;17.27;5.43;;;20.10;39.10;;;;;;1026151;28;20442;-77
2021/05/22 00:38:23;;;;;;;17.40;5.72;;;20.10;38.80;;;;;;1024445;28;20027;-77
2021/05/22 00:38:54;;;;;;;22.08;6.55;;;20.20;38.90;;;;;;1030185;28;20094;-78
2021/05/22 00:39:25;;;;;;;20.75;6.13;;;20.10;38.80;;;;;;1032669;28;20522;-77
2021/05/22 00:39:57;;;;;;;20.38;5.85;;;20.10;39.00;;;;;;1032335;28;20034;-78
2021/05/22 00:40:28;;;;;;;17.90;6.20;;;20.20;39.10;;;;;;1035567;28;20026;-77
2021/05/22 00:41:00;;;;;;;20.60;5.85;;;20.20;39.00;;;;;;1037750;28;20373;-77
2021/05/22 00:41:31;;;;;;;19.13;6.22;;;20.20;38.90;;;;;;1036356;28;20022;-78
2021/05/22 00:42:04;;;;;;;18.55;6.00;;;20.20;39.00;;;;;;1035114;28;20021;-77
2021/05/22 00:42:39;;;;;;;21.13;6.03;;;20.20;39.10;;;;;;1031585;28;20125;-77
2021/05/22 00:43:10;;;;;;;21.75;6.38;;;20.20;39.30;;;;;;1029987;28;20366;-78
2021/05/22 00:43:42;;;;;;;21.63;6.35;;;20.20;39.50;;;;;;1036338;28;20105;-77
2021/05/22 00:44:13;;;;;;;22.95;7.05;;;20.20;39.50;;;;;;1033088;28;20415;-77
2021/05/22 00:45:03;;;;;;;20.98;6.18;;;20.20;39.60;;;;;;1036345;28;20066;-77
2021/05/22 00:45:35;;;;;;;26.08;6.78;;;20.10;40.60;;;;;;1036328;28;20053;-77
2021/05/22 00:46:07;;;;;;;26.20;7.45;;;20.10;41.20;;;;;;1036108;28;20014;-77
2021/05/22 00:46:38;;;;;;;31.25;7.00;;;20.10;41.60;;;;;;1035819;28;20036;-76
2021/05/22 00:47:09;;;;;;;22.40;6.90;;;20.10;41.60;;;;;;1032314;28;20418;-77
2021/05/22 00:47:47;;;;;;;22.88;7.10;;;20.20;41.90;;;;;;1029383;28;20451;-77
2021/05/22 00:48:19;;;;;;;22.35;6.95;;;20.20;41.90;;;;;;1026136;28;20114;-77
2021/05/22 00:48:51;;;;;;;30.60;7.85;;;20.20;42.00;;;;;;1030653;28;20047;-78
2021/05/22 00:49:22;;;;;;;25.67;7.22;;;20.10;42.10;;;;;;1033724;28;20080;-78
2021/05/22 00:49:53;;;;;;;23.83;7.00;;;20.10;42.10;;;;;;1035674;28;20392;-77
2021/05/22 00:50:29;;;;;;;26.10;7.88;;;20.10;42.20;;;;;;1033365;28;20026;-77
2021/05/22 00:51:00;;;;;;;25.33;7.53;;;20.10;42.90;;;;;;1032169;28;20018;-77
2021/05/22 00:51:31;;;;;;;28.58;8.18;;;20.10;42.40;;;;;;1028307;28;21686;-77
2021/05/22 00:52:03;;;;;;;27.85;7.85;;;20.10;42.50;;;;;;1029635;28;20027;-77
2021/05/22 00:52:35;;;;;;;25.55;7.88;;;20.10;42.70;;;;;;1033331;28;20025;-77
2021/05/22 00:53:07;;;;;;;27.80;7.75;;;20.10;42.90;;;;;;1036784;28;20018;-77
2021/05/22 00:53:39;;;;;;;22.90;7.22;;;20.10;42.90;;;;;;1032860;28;20030;-77
2021/05/22 00:54:10;;;;;;;26.27;8.15;;;20.10;42.90;;;;;;1032713;28;20018;-77
2021/05/22 00:54:42;;;;;;;27.50;7.95;;;20.10;43.00;;;;;;1029503;28;20521;-77
2021/05/22 00:55:14;;;;;;;33.72;8.07;;;20.10;43.10;;;;;;1032981;28;20057;-77
2021/05/22 00:55:46;;;;;;;27.35;7.93;;;20.10;42.80;;;;;;1033117;28;20023;-77
2021/05/22 00:56:17;;;;;;;28.77;7.82;;;20.10;42.90;;;;;;1029507;28;20027;-76
2021/05/22 00:56:49;;;;;;;29.85;7.75;;;20.00;42.90;;;;;;1028887;28;20027;-78
2021/05/22 00:57:21;;;;;;;26.98;7.55;;;20.10;42.80;;;;;;1028840;28;20117;-77
2021/05/22 00:57:54;;;;;;;31.30;8.55;;;20.10;42.70;;;;;;1028974;28;20039;-77
2021/05/22 00:58:26;;;;;;;25.17;7.93;;;20.00;42.80;;;;;;1029803;28;20077;-77
2021/05/22 00:58:57;;;;;;;29.50;8.07;;;20.00;43.00;;;;;;1032918;28;20026;-77
2021/05/22 00:59:28;;;;;;;24.88;7.57;;;20.00;43.10;;;;;;1032796;28;20133;-77
2021/05/22 01:00:00;;;;;;;24.50;7.45;;;19.90;43.80;;;;;;1032710;28;20450;-77
2021/05/22 01:00:43;;;;;;;27.77;7.50;;;19.90;43.30;;;;;;1033383;28;20099;-77
2021/05/22 01:01:14;;;;;;;26.05;8.02;;;19.90;43.30;;;;;;1039225;28;20034;-76
2021/05/22 01:01:46;;;;;;;28.30;8.05;;;19.90;43.30;;;;;;1036717;28;20347;-77
2021/05/22 01:02:26;;;;;;;27.58;7.63;;;19.90;43.40;;;;;;1037043;28;20381;-77
2021/05/22 01:02:57;;;;;;;30.58;7.75;;;19.90;43.50;;;;;;1037089;28;20026;-78
2021/05/22 01:03:34;;;;;;;24.02;7.82;;;19.90;43.40;;;;;;1035080;28;20023;-77
2021/05/22 01:04:06;;;;;;;26.98;7.65;;;19.90;43.50;;;;;;1038081;28;20033;-77
2021/05/22 01:04:37;;;;;;;27.05;8.73;;;19.90;44.00;;;;;;1036193;28;20026;-77
2021/05/22 01:05:09;;;;;;;31.95;8.20;;;19.80;43.50;;;;;;1036245;28;20074;-77
2021/05/22 01:05:43;;;;;;;32.65;8.57;;;19.80;43.70;;;;;;1030194;28;20428;-78
2021/05/22 01:06:23;;;;;;;30.40;7.82;;;19.80;43.80;;;;;;1025664;28;20039;-77
2021/05/22 01:06:55;;;;;;;30.98;8.02;;;19.80;43.90;;;;;;1031278;28;20035;-77
2021/05/22 01:07:26;;;;;;;27.70;8.13;;;19.80;43.90;;;;;;1032006;28;20498;-78
2021/05/22 01:07:58;;;;;;;32.08;8.65;;;19.80;44.00;;;;;;1034730;28;20393;-77
2021/05/22 01:08:29;;;;;;;24.95;8.02;;;19.80;43.90;;;;;;1041128;28;20034;-77
2021/05/22 01:09:05;;;;;;;25.45;8.40;;;19.70;44.10;;;;;;1038841;28;20072;-77
2021/05/22 01:09:36;;;;;;;26.70;7.55;;;19.70;44.20;;;;;;1041414;28;20033;-77
2021/05/22 01:10:08;;;;;;;30.48;7.90;;;19.70;44.30;;;;;;1041338;28;20037;-78
2021/05/22 01:10:42;;;;;;;29.05;8.20;;;19.70;44.50;;;;;;1041298;28;20345;-78
2021/05/22 01:11:18;;;;;;;33.33;8.60;;;19.70;44.60;;;;;;1036855;28;20034;-78
2021/05/22 01:11:58;;;;;;;27.70;7.85;;;19.80;44.60;;;;;;1032953;28;20034;-77
2021/05/22 01:12:33;;;;;;;35.45;8.57;;;19.70;44.50;;;;;;1033911;28;20030;-78
2021/05/22 01:13:04;;;;;;;33.58;8.75;;;19.70;44.60;;;;;;1034365;28;20541;-77
2021/05/22 01:13:38;;;;;;;31.60;8.35;;;19.70;44.60;;;;;;1032859;28;20097;-78
2021/05/22 01:14:16;;;;;;;31.77;7.82;;;19.70;44.60;;;;;;1032805;28;20046;-77
2021/05/22 01:15:13;;;;;;;33.45;8.63;;;19.70;44.50;;;;;;1033219;28;20075;-78
2021/05/22 01:15:50;;;;;;;32.45;8.98;;;19.70;44.50;;;;;;1040314;28;20034;-78
2021/05/22 01:16:22;;;;;;;29.80;8.77;;;19.70;44.50;;;;;;1036857;28;20121;-78
2021/05/22 01:16:56;;;;;;;32.67;8.57;;;19.60;44.40;;;;;;1036485;28;20088;-78
2021/05/22 01:17:27;;;;;;;30.35;8.32;;;19.60;44.50;;;;;;1036827;28;20065;-77
2021/05/22 01:17:59;;;;;;;31.50;8.73;;;19.60;44.50;;;;;;1033454;28;20517;-78
2021/05/22 01:18:31;;;;;;;33.83;8.35;;;19.60;44.50;;;;;;1036963;28;20072;-78
2021/05/22 01:19:06;;;;;;;31.45;8.80;;;19.70;44.60;;;;;;1036632;28;20041;-77
2021/05/22 01:19:41;;;;;;;32.53;8.07;;;19.70;44.60;;;;;;1036864;28;20376;-77
2021/05/22 01:20:56;;;;;;;35.03;9.02;;;19.60;44.60;;;;;;1037025;28;20048;-78
2021/05/22 01:21:29;;;;;;;29.10;8.30;;;19.60;44.90;;;;;;1028556;28;20448;-78
2021/05/22 01:22:01;;;;;;;34.72;8.88;;;19.60;45.10;;;;;;1035701;28;20041;-77
2021/05/22 01:22:46;;;;;;;31.67;8.90;;;19.50;45.20;;;;;;1036997;28;20053;-78
2021/05/22 01:23:21;;;;;;;31.80;8.52;;;19.50;45.20;;;;;;1039547;28;20026;-77
2021/05/22 01:24:05;;;;;;;32.58;8.65;;;19.50;45.00;;;;;;1036855;28;20487;-78
2021/05/22 01:25:19;;;;;;;36.88;9.20;;;19.50;45.20;;;;;;1036898;28;20030;-78
2021/05/22 01:25:53;;;;;;;32.70;8.40;;;19.50;45.00;;;;;;1024254;29;20043;-77
2021/05/22 01:26:26;;;;;;;32.97;8.88;;;19.40;45.10;;;;;;1029456;28;20063;-77
2021/05/22 01:26:57;;;;;;;27.73;8.38;;;19.50;45.20;;;;;;1036823;28;20133;-78
2021/05/22 01:27:29;;;;;;;32.10;8.68;;;19.40;45.20;;;;;;1030301;28;20030;-77
2021/05/22 01:28:03;;;;;;;32.10;8.85;;;19.40;45.30;;;;;;1032238;28;20133;-77
2021/05/22 01:28:35;;;;;;;33.55;9.00;;;19.40;45.40;;;;;;1036836;28;20061;-79
2021/05/22 01:29:06;;;;;;;30.40;8.57;;;19.40;45.40;;;;;;1036910;28;20041;-78
2021/05/22 01:29:38;;;;;;;29.50;8.43;;;19.40;45.50;;;;;;1033316;28;20035;-77
2021/05/22 01:30:10;;;;;;;33.47;8.73;;;19.30;45.60;;;;;;1032592;28;20121;-78
2021/05/22 01:30:45;;;;;;;37.30;8.63;;;19.30;45.80;;;;;;1028686;28;20474;-79
2021/05/22 01:31:16;;;;;;;34.28;10.05;;;19.30;45.70;;;;;;1028583;28;20039;-78
2021/05/22 01:31:48;;;;;;;34.75;9.02;;;19.30;45.80;;;;;;1029155;28;20041;-78
2021/05/22 01:32:20;;;;;;;35.13;8.95;;;19.30;45.70;;;;;;1028726;28;20565;-77
2021/05/22 01:32:51;;;;;;;35.83;9.40;;;19.30;45.70;;;;;;1028223;28;20035;-78
2021/05/22 01:33:23;;;;;;;36.03;9.60;;;19.20;45.80;;;;;;1030408;28;20121;-78
2021/05/22 01:33:55;;;;;;;36.78;9.48;;;19.20;45.90;;;;;;1032845;28;20041;-78
2021/05/22 01:34:27;;;;;;;34.10;9.32;;;19.20;46.00;;;;;;1037554;28;20048;-77
2021/05/22 01:34:59;;;;;;;29.70;8.60;;;19.10;46.00;;;;;;1036480;28;20038;-77
2021/05/22 01:35:31;;;;;;;36.67;9.50;;;19.10;46.10;;;;;;1036894;28;20022;-78
2021/05/22 01:36:04;;;;;;;43.90;9.98;;;19.10;46.10;;;;;;1036918;28;20113;-78
2021/05/22 01:36:36;;;;;;;34.50;8.88;;;19.10;46.30;;;;;;1037298;28;20053;-77
2021/05/22 01:37:07;;;;;;;34.55;8.90;;;19.00;46.20;;;;;;1036341;28;20433;-78
2021/05/22 01:37:38;;;;;;;38.80;9.30;;;19.10;46.30;;;;;;1036721;28;20018;-78
2021/05/22 01:38:10;;;;;;;39.00;8.85;;;19.00;46.20;;;;;;1036763;28;20345;-78
2021/05/22 01:38:41;;;;;;;38.45;9.55;;;19.00;46.40;;;;;;1037555;28;20097;-78
2021/05/22 01:39:13;;;;;;;36.45;8.93;;;18.90;46.40;;;;;;1043287;28;20057;-78
2021/05/22 01:39:44;;;;;;;41.78;8.95;;;19.00;46.60;;;;;;1036292;28;20473;-78
2021/05/22 01:40:16;;;;;;;34.80;9.10;;;18.90;46.60;;;;;;1032495;28;20470;-78
2021/05/22 01:40:50;;;;;;;33.53;9.13;;;18.90;46.70;;;;;;1032693;28;20018;-77
2021/05/22 01:41:21;;;;;;;32.15;8.35;;;18.80;46.80;;;;;;1029486;28;20054;-77
2021/05/22 01:41:53;;;;;;;39.13;9.57;;;18.80;46.80;;;;;;1033443;28;20018;-77
2021/05/22 01:42:24;;;;;;;36.05;9.50;;;18.80;47.00;;;;;;1036761;28;20022;-77
2021/05/22 01:42:56;;;;;;;33.15;9.32;;;18.70;47.10;;;;;;1036628;28;20022;-77
2021/05/22 01:43:27;;;;;;;41.92;9.45;;;18.70;47.20;;;;;;1037454;28;20026;-78
2021/05/22 01:44:01;;;;;;;37.85;9.10;;;18.70;47.10;;;;;;1036690;28;20026;-79
2021/05/22 01:44:36;;;;;;;41.05;9.57;;;18.60;47.00;;;;;;1029182;28;20125;-77
2021/05/22 01:45:14;;;;;;;37.50;9.30;;;18.60;47.20;;;;;;1032513;28;20034;-77
2021/05/22 01:45:47;;;;;;;37.58;9.82;;;18.50;47.40;;;;;;1032479;28;20098;-78
2021/05/22 01:46:20;;;;;;;39.55;9.55;;;18.50;47.50;;;;;;1028678;28;20023;-78
2021/05/22 01:46:53;;;;;;;38.67;9.52;;;18.50;47.70;;;;;;1030441;28;20538;-77
2021/05/22 01:47:26;;;;;;;41.50;9.88;;;18.50;47.80;;;;;;1029821;28;20030;-77
2021/05/22 01:48:00;;;;;;;39.28;9.73;;;18.50;47.90;;;;;;1036138;28;20026;-77
2021/05/22 01:48:31;;;;;;;37.17;9.25;;;18.50;48.50;;;;;;1039251;28;20134;-77
2021/05/22 01:49:04;;;;;;;45.03;10.07;;;18.40;48.20;;;;;;1040976;28;20089;-78
2021/05/22 01:49:35;;;;;;;33.53;9.20;;;18.30;48.10;;;;;;1036416;28;20026;-77
2021/05/22 01:50:08;;;;;;;40.03;9.40;;;18.30;48.30;;;;;;1032454;28;20358;-79
2021/05/22 01:50:43;;;;;;;35.15;9.75;;;18.30;48.40;;;;;;1032453;28;20026;-77
2021/05/22 01:51:20;;;;;;;38.15;9.35;;;18.20;48.50;;;;;;1033865;28;20050;-77
2021/05/22 01:51:53;;;;;;;36.58;9.52;;;18.20;48.90;;;;;;1032716;28;20018;-77
2021/05/22 01:52:25;;;;;;;38.42;9.38;;;18.10;48.80;;;;;;1030646;28;20134;-78
2021/05/22 01:52:59;;;;;;;36.08;9.10;;;18.10;48.90;;;;;;1032162;28;20026;-77
2021/05/22 01:53:31;;;;;;;40.45;10.02;;;18.00;49.00;;;;;;1033630;28;20163;-77
2021/05/22 01:54:04;;;;;;;36.80;9.15;;;18.00;49.10;;;;;;1036965;28;20046;-77
2021/05/22 01:54:37;;;;;;;33.67;9.18;;;17.90;49.30;;;;;;1030939;28;20537;-78
2021/05/22 01:55:11;;;;;;;37.20;9.60;;;17.90;49.40;;;;;;1032628;28;20030;-77
2021/05/22 01:55:42;;;;;;;34.90;9.73;;;17.80;49.60;;;;;;1036812;28;20026;-77
2021/05/22 01:56:15;;;;;;;42.85;9.43;;;17.80;49.60;;;;;;1033735;28;20030;-77
2021/05/22 01:56:47;;;;;;;37.67;10.00;;;17.80;49.70;;;;;;1032602;28;20035;-77
2021/05/22 01:57:19;;;;;;;37.70;10.13;;;17.80;49.80;;;;;;1032797;28;20106;-77
2021/05/22 01:57:51;;;;;;;37.83;10.25;;;17.70;49.90;;;;;;1029029;28;20567;-77
2021/05/22 01:58:23;;;;;;;41.92;9.18;;;17.70;50.00;;;;;;1032487;28;20083;-77
2021/05/22 01:58:55;;;;;;;42.95;10.63;;;17.60;50.20;;;;;;1032705;28;20039;-77
2021/05/22 01:59:27;;;;;;;39.38;9.57;;;17.60;50.20;;;;;;1033546;28;20109;-78
2021/05/22 01:59:59;;;;;;;43.47;10.32;;;17.50;50.30;;;;;;1036155;28;20060;-78
2021/05/22 02:00:31;;;;;;;36.58;9.25;;;17.50;50.50;;;;;;1032328;28;20478;-77
2021/05/22 02:01:04;;;;;;;39.38;9.50;;;17.40;50.60;;;;;;1031207;28;20034;-77
2021/05/22 02:01:35;;;;;;;35.78;9.43;;;17.40;50.80;;;;;;1032115;28;20108;-77
2021/05/22 02:02:07;;;;;;;31.92;9.05;;;17.30;50.80;;;;;;1036708;28;20030;-78
2021/05/22 02:02:55;;;;;;;41.63;9.85;;;17.30;51.10;;;;;;1036827;28;20038;-78
2021/05/22 02:03:38;;;;;;;43.28;9.95;;;17.20;51.30;;;;;;1032641;28;20057;-77
2021/05/22 02:04:09;;;;;;;35.50;10.23;;;17.20;51.40;;;;;;1033476;28;20033;-77
2021/05/22 02:04:45;;;;;;;41.25;10.15;;;17.20;51.60;;;;;;1032830;28;20058;-77
2021/05/22 02:05:18;;;;;;;41.70;9.57;;;17.10;51.80;;;;;;1035182;28;20530;-77
2021/05/22 02:05:56;;;;;;;39.58;9.50;;;17.00;51.90;;;;;;1040217;28;20152;-77
2021/05/22 02:06:33;;;;;;;46.83;9.80;;;17.00;52.00;;;;;;1040457;28;20025;-77
2021/05/22 02:07:06;;;;;;;43.70;9.52;;;17.00;52.20;;;;;;1036662;28;20068;-78
2021/05/22 02:07:38;;;;;;;39.40;9.82;;;16.90;52.30;;;;;;1032439;28;20034;-77
2021/05/22 02:08:14;;;;;;;38.55;9.70;;;16.90;52.50;;;;;;1031443;28;20031;-77
2021/05/22 02:08:48;;;;;;;36.47;9.57;;;16.80;52.50;;;;;;1030098;28;20501;-78
2021/05/22 02:09:21;;;;;;;36.25;9.52;;;16.80;52.70;;;;;;1035805;28;20092;-77
2021/05/22 02:09:55;;;;;;;42.90;10.20;;;16.80;52.80;;;;;;1034209;28;20501;-77
2021/05/22 02:10:27;;;;;;;42.28;10.35;;;16.70;52.80;;;;;;1036749;28;20026;-77
2021/05/22 02:10:59;;;;;;;43.22;9.32;;;16.70;52.90;;;;;;1036767;28;20109;-77
2021/05/22 02:11:35;;;;;;;42.33;9.48;;;16.70;53.10;;;;;;1036622;28;20130;-77
2021/05/22 02:12:08;;;;;;;39.65;9.93;;;16.70;52.90;;;;;;1036015;28;20030;-77
2021/05/22 02:12:40;;;;;;;36.25;9.32;;;16.70;53.00;;;;;;1034529;28;20120;-78
2021/05/22 02:13:11;;;;;;;38.95;9.30;;;16.60;53.20;;;;;;1034727;28;20034;-77
2021/05/22 02:13:44;;;;;;;39.47;10.05;;;16.60;53.30;;;;;;1037317;28;20496;-77
2021/05/22 02:14:28;;;;;;;39.70;9.52;;;16.50;53.40;;;;;;1040726;28;20025;-77
2021/05/22 02:15:00;;;;;;;43.38;10.18;;;16.50;53.50;;;;;;1036512;28;20045;-78
2021/05/22 02:15:35;;;;;;;42.13;10.80;;;16.50;53.50;;;;;;1036733;28;20022;-78
2021/05/22 02:16:08;;;;;;;39.45;9.95;;;16.40;53.70;;;;;;1036555;28;20021;-78
2021/05/22 02:16:50;;;;;;;51.17;10.20;;;16.40;53.70;;;;;;1036169;28;20028;-77
2021/05/22 02:17:24;;;;;;;39.45;9.27;;;16.40;53.90;;;;;;1035705;28;20014;-78
2021/05/22 02:17:57;;;;;;;41.00;9.93;;;16.30;54.00;;;;;;1032616;28;20128;-79
2021/05/22 02:18:31;;;;;;;41.70;9.73;;;16.30;54.10;;;;;;1028447;28;20502;-78
2021/05/22 02:19:06;;;;;;;42.63;10.05;;;16.30;54.20;;;;;;1029732;28;20046;-78
2021/05/22 02:19:39;;;;;;;47.08;10.82;;;16.30;54.20;;;;;;1028455;28;20106;-78
2021/05/22 02:20:10;;;;;;;42.17;10.27;;;16.30;54.40;;;;;;1032576;28;20089;-77
2021/05/22 02:20:43;;;;;;;41.22;10.73;;;16.20;54.60;;;;;;1028115;28;20382;-78
2021/05/22 02:21:16;;;;;;;36.97;9.40;;;16.20;54.80;;;;;;1029051;28;20031;-77
2021/05/22 02:21:48;;;;;;;44.00;10.10;;;16.10;54.80;;;;;;1031222;28;20622;-77
2021/05/22 02:22:23;;;;;;;46.17;11.05;;;16.10;55.00;;;;;;1031444;28;20035;-77
2021/05/22 02:22:56;;;;;;;42.38;10.32;;;16.10;55.10;;;;;;1028606;28;20023;-78
2021/05/22 02:23:28;;;;;;;40.30;10.15;;;16.10;55.20;;;;;;1031414;28;20022;-77
2021/05/22 02:24:00;;;;;;;39.90;10.63;;;16.00;55.30;;;;;;1032578;28;20030;-78
2021/05/22 02:24:32;;;;;;;40.55;9.75;;;16.00;55.30;;;;;;1032539;28;20481;-77
2021/05/22 02:25:04;;;;;;;39.38;10.10;;;16.00;55.50;;;;;;1035034;28;20026;-77
2021/05/22 02:25:35;;;;;;;44.58;10.35;;;15.90;55.70;;;;;;1031055;28;20508;-77
2021/05/22 02:26:08;;;;;;;42.95;10.65;;;15.90;55.80;;;;;;1028607;28;20117;-79
2021/05/22 02:26:41;;;;;;;43.70;9.88;;;15.90;55.80;;;;;;1028488;28;20030;-77
2021/05/22 02:27:12;;;;;;;39.45;10.40;;;15.90;55.70;;;;;;1029568;28;20023;-77
2021/05/22 02:27:45;;;;;;;42.65;11.05;;;15.80;55.90;;;;;;1033391;28;20091;-77
2021/05/22 02:28:16;;;;;;;41.85;10.23;;;15.80;56.10;;;;;;1033475;28;20057;-77
2021/05/22 02:28:48;;;;;;;41.05;10.23;;;15.80;56.20;;;;;;1032591;28;20026;-77
2021/05/22 02:29:21;;;;;;;47.15;10.25;;;15.70;56.20;;;;;;1028580;28;20035;-77
2021/05/22 02:29:53;;;;;;;43.10;10.15;;;15.70;56.90;;;;;;1029492;28;20098;-77
2021/05/22 02:30:25;;;;;;;38.95;9.70;;;15.60;56.40;;;;;;1033326;28;20023;-77
2021/05/22 02:30:58;;;;;;;41.03;10.88;;;15.70;56.60;;;;;;1036716;28;20026;-79
2021/05/22 02:31:32;;;;;;;36.10;9.27;;;15.70;56.40;;;;;;1036621;28;20058;-78
2021/05/22 02:32:05;;;;;;;44.35;10.45;;;15.60;56.50;;;;;;1036692;28;20064;-77
2021/05/22 02:32:49;;;;;;;45.28;10.15;;;15.60;56.60;;;;;;1032615;28;20410;-77
2021/05/22 02:33:21;;;;;;;38.33;9.32;;;15.70;56.50;;;;;;1031205;28;20386;-79
2021/05/22 02:34:03;;;;;;;49.88;10.07;;;15.60;56.40;;;;;;1032966;28;20027;-77
2021/05/22 02:34:58;;;;;;;42.92;9.73;;;15.60;56.50;;;;;;1035624;28;20385;-77
2021/05/22 02:35:31;;;;;;;42.38;9.93;;;15.60;56.50;;;;;;1032013;28;20042;-77
2021/05/22 02:36:04;;;;;;;47.33;10.35;;;15.50;56.90;;;;;;1028327;28;20475;-77
2021/05/22 02:36:38;;;;;;;43.78;10.07;;;15.50;57.00;;;;;;1032443;28;20914;-77
2021/05/22 02:37:11;;;;;;;44.25;9.90;;;15.50;56.90;;;;;;1033733;28;20118;-77
2021/05/22 02:37:42;;;;;;;40.67;9.93;;;15.50;57.00;;;;;;1034325;28;20023;-77
2021/05/22 02:38:24;;;;;;;44.53;10.25;;;15.50;57.20;;;;;;1039804;28;20030;-77
2021/05/22 02:38:55;;;;;;;46.30;10.40;;;15.50;57.20;;;;;;1032387;28;20485;-77
2021/05/22 02:39:27;;;;;;;45.35;10.93;;;15.50;57.50;;;;;;1036700;28;20034;-77
2021/05/22 02:40:05;;;;;;;45.60;10.15;;;15.50;57.50;;;;;;1036582;28;20462;-77
2021/05/22 02:40:38;;;;;;;52.03;10.93;;;15.50;57.50;;;;;;1036281;28;20056;-77
2021/05/22 02:41:11;;;;;;;37.85;10.25;;;15.40;57.70;;;;;;1036480;28;20054;-77
2021/05/22 02:41:45;;;;;;;38.47;10.05;;;15.30;57.90;;;;;;1036474;28;20485;-77
2021/05/22 02:42:18;;;;;;;47.38;10.45;;;15.30;57.90;;;;;;1036719;28;20109;-77
2021/05/22 02:42:57;;;;;;;47.70;10.70;;;15.30;57.90;;;;;;1036174;28;20414;-78
2021/05/22 02:43:30;;;;;;;42.97;10.45;;;15.30;58.10;;;;;;1037616;28;20038;-77
2021/05/22 02:44:06;;;;;;;50.55;10.73;;;15.30;58.20;;;;;;1040974;28;20037;-77
2021/05/22 02:44:39;;;;;;;45.55;10.60;;;15.30;58.20;;;;;;1034945;28;20054;-78
2021/05/22 02:45:12;;;;;;;47.33;10.55;;;15.30;58.00;;;;;;1036697;28;20034;-78
2021/05/22 02:45:45;;;;;;;44.45;11.10;;;15.30;57.90;;;;;;1032518;28;20045;-77
2021/05/22 02:46:19;;;;;;;46.08;10.38;;;15.30;58.10;;;;;;1033459;28;20031;-78
2021/05/22 02:46:51;;;;;;;44.20;9.88;;;15.30;58.20;;;;;;1032396;28;20462;-78
2021/05/22 02:47:26;;;;;;;45.53;11.15;;;15.30;58.30;;;;;;1033661;28;20026;-78
2021/05/22 02:48:00;;;;;;;44.50;10.18;;;15.20;58.40;;;;;;1032750;28;20031;-78
2021/05/22 02:48:36;;;;;;;48.80;11.43;;;15.20;58.40;;;;;;1032657;28;20027;-78
2021/05/22 02:49:11;;;;;;;40.33;10.50;;;15.20;58.50;;;;;;1031443;28;20445;-77
2021/05/22 02:49:44;;;;;;;46.00;9.90;;;15.20;58.50;;;;;;1030523;28;20059;-78
2021/05/22 02:50:16;;;;;;;46.50;10.18;;;15.10;58.70;;;;;;1029129;28;20133;-77
2021/05/22 02:50:50;;;;;;;50.70;10.57;;;15.10;58.60;;;;;;1028334;28;20046;-77
2021/05/22 02:51:24;;;;;;;50.58;12.07;;;15.10;58.80;;;;;;1031340;28;20110;-78